sensor_id;sensor_type;location;lat;lon;timestamp;P1;durP1;ratioP1;P2;durP2;ratioP2
67965;SDS011;54749;47.850;9.002;2023-04-08T00:01:18;9.95;;;4.60;;
67965;SDS011;54749;47.850;9.002;2023-04-08T00:03:45;10.27;;;4.80;;
67965;SDS011;54749;47.850;9.002;2023-04-08T00:06:12;10.75;;;4.30;;
67965;SDS011;54749;47.850;9.002;2023-04-08T00:08:40;10.77;;;4.90;;
67965;SDS011;54749;47.850;9.002;2023-04-08T00:11:07;10.03;;;4.23;;
67965;SDS011;54749;47.850;9.002;2023-04-08T00:13:34;9.98;;;3.90;;
67965;SDS011;54749;47.850;9.002;2023-04-08T00:16:01;8.88;;;4.20;;
67965;SDS011;54749;47.850;9.002;2023-04-08T00:18:29;11.45;;;5.15;;
67965;SDS011;54749;47.850;9.002;2023-04-08T00:20:56;8.38;;;4.45;;
67965;SDS011;54749;47.850;9.002;2023-04-08T00:23:23;8.70;;;4.20;;
67965;SDS011;54749;47.850;9.002;2023-04-08T00:25:50;9.32;;;4.53;;
67965;SDS011;54749;47.850;9.002;2023-04-08T00:28:17;9.25;;;4.38;;
67965;SDS011;54749;47.850;9.002;2023-04-08T00:30:44;7.85;;;3.95;;
67965;SDS011;54749;47.850;9.002;2023-04-08T00:33:11;7.97;;;3.95;;
67965;SDS011;54749;47.850;9.002;2023-04-08T00:35:38;8.67;;;4.57;;
67965;SDS011;54749;47.850;9.002;2023-04-08T00:38:06;8.20;;;3.50;;
67965;SDS011;54749;47.850;9.002;2023-04-08T00:40:33;8.70;;;4.15;;
67965;SDS011;54749;47.850;9.002;2023-04-08T00:43:01;8.27;;;3.85;;
67965;SDS011;54749;47.850;9.002;2023-04-08T00:45:28;8.35;;;3.60;;
67965;SDS011;54749;47.850;9.002;2023-04-08T00:47:55;7.77;;;3.57;;
67965;SDS011;54749;47.850;9.002;2023-04-08T00:50:22;6.80;;;3.55;;
67965;SDS011;54749;47.850;9.002;2023-04-08T00:52:49;8.38;;;3.88;;
67965;SDS011;54749;47.850;9.002;2023-04-08T00:55:16;8.00;;;4.07;;
67965;SDS011;54749;47.850;9.002;2023-04-08T00:57:44;8.57;;;3.92;;
67965;SDS011;54749;47.850;9.002;2023-04-08T01:00:12;8.87;;;4.07;;
67965;SDS011;54749;47.850;9.002;2023-04-08T01:05:25;6.97;;;3.60;;
67965;SDS011;54749;47.850;9.002;2023-04-08T01:07:58;7.45;;;3.22;;
67965;SDS011;54749;47.850;9.002;2023-04-08T01:10:28;6.80;;;3.28;;
67965;SDS011;54749;47.850;9.002;2023-04-08T01:13:01;6.83;;;3.23;;
67965;SDS011;54749;47.850;9.002;2023-04-08T01:15:31;8.07;;;3.63;;
67965;SDS011;54749;47.850;9.002;2023-04-08T01:18:05;6.85;;;3.50;;
67965;SDS011;54749;47.850;9.002;2023-04-08T01:20:33;7.75;;;3.95;;
67965;SDS011;54749;47.850;9.002;2023-04-08T01:23:22;8.05;;;3.88;;
67965;SDS011;54749;47.850;9.002;2023-04-08T01:25:56;8.50;;;4.40;;
67965;SDS011;54749;47.850;9.002;2023-04-08T01:28:24;9.00;;;4.35;;
67965;SDS011;54749;47.850;9.002;2023-04-08T01:30:54;8.77;;;4.05;;
67965;SDS011;54749;47.850;9.002;2023-04-08T01:33:26;7.50;;;3.65;;
67965;SDS011;54749;47.850;9.002;2023-04-08T01:35:54;7.97;;;3.80;;
67965;SDS011;54749;47.850;9.002;2023-04-08T01:38:24;7.57;;;3.63;;
67965;SDS011;54749;47.850;9.002;2023-04-08T01:40:52;7.18;;;3.78;;
67965;SDS011;54749;47.850;9.002;2023-04-08T01:43:21;7.13;;;3.28;;
67965;SDS011;54749;47.850;9.002;2023-04-08T01:45:50;6.13;;;3.08;;
67965;SDS011;54749;47.850;9.002;2023-04-08T01:48:20;9.70;;;3.50;;
67965;SDS011;54749;47.850;9.002;2023-04-08T01:50:48;7.70;;;3.40;;
67965;SDS011;54749;47.850;9.002;2023-04-08T01:53:17;7.13;;;3.40;;
67965;SDS011;54749;47.850;9.002;2023-04-08T01:55:44;6.97;;;3.15;;
67965;SDS011;54749;47.850;9.002;2023-04-08T01:58:14;7.82;;;3.75;;
67965;SDS011;54749;47.850;9.002;2023-04-08T02:00:47;7.05;;;3.20;;
67965;SDS011;54749;47.850;9.002;2023-04-08T02:03:16;6.97;;;3.40;;
67965;SDS011;54749;47.850;9.002;2023-04-08T02:05:46;6.75;;;3.22;;
67965;SDS011;54749;47.850;9.002;2023-04-08T02:08:13;5.75;;;2.92;;
67965;SDS011;54749;47.850;9.002;2023-04-08T02:10:40;7.00;;;3.63;;
67965;SDS011;54749;47.850;9.002;2023-04-08T02:13:07;6.85;;;3.53;;
67965;SDS011;54749;47.850;9.002;2023-04-08T02:15:35;7.23;;;3.30;;
67965;SDS011;54749;47.850;9.002;2023-04-08T02:18:06;6.78;;;3.03;;
67965;SDS011;54749;47.850;9.002;2023-04-08T02:20:37;6.95;;;3.22;;
67965;SDS011;54749;47.850;9.002;2023-04-08T02:23:19;7.32;;;3.30;;
67965;SDS011;54749;47.850;9.002;2023-04-08T02:25:49;6.43;;;2.90;;
67965;SDS011;54749;47.850;9.002;2023-04-08T02:28:25;6.40;;;3.10;;
67965;SDS011;54749;47.850;9.002;2023-04-08T02:30:54;7.05;;;3.38;;
67965;SDS011;54749;47.850;9.002;2023-04-08T02:33:23;6.65;;;3.28;;
67965;SDS011;54749;47.850;9.002;2023-04-08T02:35:52;7.20;;;3.33;;
67965;SDS011;54749;47.850;9.002;2023-04-08T02:38:22;7.22;;;3.10;;
67965;SDS011;54749;47.850;9.002;2023-04-08T02:40:50;6.97;;;3.10;;
67965;SDS011;54749;47.850;9.002;2023-04-08T02:43:17;8.25;;;3.40;;
67965;SDS011;54749;47.850;9.002;2023-04-08T02:45:44;6.55;;;3.13;;
67965;SDS011;54749;47.850;9.002;2023-04-08T02:48:12;7.35;;;3.13;;
67965;SDS011;54749;47.850;9.002;2023-04-08T02:50:38;6.53;;;3.30;;
67965;SDS011;54749;47.850;9.002;2023-04-08T02:53:07;7.60;;;3.60;;
67965;SDS011;54749;47.850;9.002;2023-04-08T02:55:36;7.68;;;3.40;;
67965;SDS011;54749;47.850;9.002;2023-04-08T02:58:03;6.80;;;3.10;;
67965;SDS011;54749;47.850;9.002;2023-04-08T03:00:31;6.88;;;3.40;;
67965;SDS011;54749;47.850;9.002;2023-04-08T03:02:58;8.85;;;3.92;;
67965;SDS011;54749;47.850;9.002;2023-04-08T03:05:25;7.17;;;3.60;;
67965;SDS011;54749;47.850;9.002;2023-04-08T03:07:53;8.27;;;3.50;;
67965;SDS011;54749;47.850;9.002;2023-04-08T03:10:20;7.30;;;3.72;;
67965;SDS011;54749;47.850;9.002;2023-04-08T03:12:47;6.55;;;3.20;;
67965;SDS011;54749;47.850;9.002;2023-04-08T03:15:14;7.32;;;3.53;;
67965;SDS011;54749;47.850;9.002;2023-04-08T03:17:41;9.10;;;3.47;;
67965;SDS011;54749;47.850;9.002;2023-04-08T03:20:08;6.60;;;3.42;;
67965;SDS011;54749;47.850;9.002;2023-04-08T03:22:36;8.00;;;3.60;;
67965;SDS011;54749;47.850;9.002;2023-04-08T03:25:03;7.40;;;3.78;;
67965;SDS011;54749;47.850;9.002;2023-04-08T03:27:31;7.25;;;3.58;;
67965;SDS011;54749;47.850;9.002;2023-04-08T03:29:58;7.77;;;3.50;;
67965;SDS011;54749;47.850;9.002;2023-04-08T03:32:25;7.60;;;3.85;;
67965;SDS011;54749;47.850;9.002;2023-04-08T03:34:52;8.65;;;4.07;;
67965;SDS011;54749;47.850;9.002;2023-04-08T03:37:20;7.75;;;3.83;;
67965;SDS011;54749;47.850;9.002;2023-04-08T03:39:46;9.93;;;4.28;;
67965;SDS011;54749;47.850;9.002;2023-04-08T03:42:14;7.00;;;3.63;;
67965;SDS011;54749;47.850;9.002;2023-04-08T03:44:41;7.20;;;3.50;;
67965;SDS011;54749;47.850;9.002;2023-04-08T03:47:08;9.15;;;3.95;;
67965;SDS011;54749;47.850;9.002;2023-04-08T03:49:35;10.95;;;5.20;;
67965;SDS011;54749;47.850;9.002;2023-04-08T03:52:02;7.72;;;3.88;;
67965;SDS011;54749;47.850;9.002;2023-04-08T03:54:29;10.00;;;4.57;;
67965;SDS011;54749;47.850;9.002;2023-04-08T03:56:56;8.05;;;4.40;;
67965;SDS011;54749;47.850;9.002;2023-04-08T03:59:23;8.45;;;3.70;;
67965;SDS011;54749;47.850;9.002;2023-04-08T04:01:51;7.75;;;3.90;;
67965;SDS011;54749;47.850;9.002;2023-04-08T04:04:19;8.13;;;3.70;;
67965;SDS011;54749;47.850;9.002;2023-04-08T04:06:47;6.77;;;3.20;;
67965;SDS011;54749;47.850;9.002;2023-04-08T04:09:17;8.57;;;3.45;;
67965;SDS011;54749;47.850;9.002;2023-04-08T04:11:44;7.53;;;3.35;;
67965;SDS011;54749;47.850;9.002;2023-04-08T04:14:11;7.97;;;4.18;;
67965;SDS011;54749;47.850;9.002;2023-04-08T04:16:38;8.90;;;3.90;;
67965;SDS011;54749;47.850;9.002;2023-04-08T04:19:05;9.17;;;4.50;;
67965;SDS011;54749;47.850;9.002;2023-04-08T04:21:33;9.77;;;3.95;;
67965;SDS011;54749;47.850;9.002;2023-04-08T04:23:59;8.77;;;3.95;;
67965;SDS011;54749;47.850;9.002;2023-04-08T04:26:27;8.02;;;3.78;;
67965;SDS011;54749;47.850;9.002;2023-04-08T04:28:54;9.00;;;4.55;;
67965;SDS011;54749;47.850;9.002;2023-04-08T04:31:22;9.80;;;4.30;;
67965;SDS011;54749;47.850;9.002;2023-04-08T04:33:53;9.73;;;4.18;;
67965;SDS011;54749;47.850;9.002;2023-04-08T04:36:20;9.98;;;4.07;;
67965;SDS011;54749;47.850;9.002;2023-04-08T04:38:48;9.80;;;4.10;;
67965;SDS011;54749;47.850;9.002;2023-04-08T04:41:16;7.93;;;3.90;;
67965;SDS011;54749;47.850;9.002;2023-04-08T04:43:43;8.57;;;3.90;;
67965;SDS011;54749;47.850;9.002;2023-04-08T04:46:11;6.70;;;3.05;;
67965;SDS011;54749;47.850;9.002;2023-04-08T04:48:38;8.38;;;3.55;;
67965;SDS011;54749;47.850;9.002;2023-04-08T04:51:05;9.45;;;4.10;;
67965;SDS011;54749;47.850;9.002;2023-04-08T04:53:33;8.50;;;4.13;;
67965;SDS011;54749;47.850;9.002;2023-04-08T04:56:00;12.20;;;5.47;;
67965;SDS011;54749;47.850;9.002;2023-04-08T04:58:28;12.95;;;6.10;;
67965;SDS011;54749;47.850;9.002;2023-04-08T05:00:56;11.43;;;5.15;;
67965;SDS011;54749;47.850;9.002;2023-04-08T05:03:23;9.30;;;4.40;;
67965;SDS011;54749;47.850;9.002;2023-04-08T05:05:51;8.65;;;4.07;;
67965;SDS011;54749;47.850;9.002;2023-04-08T05:08:19;9.30;;;4.00;;
67965;SDS011;54749;47.850;9.002;2023-04-08T05:10:47;8.00;;;3.65;;
67965;SDS011;54749;47.850;9.002;2023-04-08T05:13:16;9.65;;;4.18;;
67965;SDS011;54749;47.850;9.002;2023-04-08T05:15:44;7.95;;;4.00;;
67965;SDS011;54749;47.850;9.002;2023-04-08T05:18:12;10.05;;;4.45;;
67965;SDS011;54749;47.850;9.002;2023-04-08T05:20:39;8.40;;;3.70;;
67965;SDS011;54749;47.850;9.002;2023-04-08T05:23:06;8.70;;;4.32;;
67965;SDS011;54749;47.850;9.002;2023-04-08T05:25:34;10.10;;;4.57;;
67965;SDS011;54749;47.850;9.002;2023-04-08T05:28:02;10.00;;;4.38;;
67965;SDS011;54749;47.850;9.002;2023-04-08T05:30:30;10.23;;;4.90;;
67965;SDS011;54749;47.850;9.002;2023-04-08T05:32:57;9.90;;;4.80;;
67965;SDS011;54749;47.850;9.002;2023-04-08T05:35:27;10.93;;;5.03;;
67965;SDS011;54749;47.850;9.002;2023-04-08T05:37:54;11.30;;;5.75;;
67965;SDS011;54749;47.850;9.002;2023-04-08T05:40:22;9.10;;;4.80;;
67965;SDS011;54749;47.850;9.002;2023-04-08T05:42:49;12.73;;;5.70;;
67965;SDS011;54749;47.850;9.002;2023-04-08T05:45:16;10.67;;;5.10;;
67965;SDS011;54749;47.850;9.002;2023-04-08T05:47:43;11.07;;;5.72;;
67965;SDS011;54749;47.850;9.002;2023-04-08T05:50:11;9.65;;;4.97;;
67965;SDS011;54749;47.850;9.002;2023-04-08T05:52:42;10.25;;;4.85;;
67965;SDS011;54749;47.850;9.002;2023-04-08T05:55:11;9.05;;;4.65;;
67965;SDS011;54749;47.850;9.002;2023-04-08T05:57:38;9.47;;;4.60;;
67965;SDS011;54749;47.850;9.002;2023-04-08T06:00:07;9.57;;;4.85;;
67965;SDS011;54749;47.850;9.002;2023-04-08T06:02:36;11.75;;;5.93;;
67965;SDS011;54749;47.850;9.002;2023-04-08T06:05:04;15.38;;;6.68;;
67965;SDS011;54749;47.850;9.002;2023-04-08T06:07:32;16.08;;;7.47;;
67965;SDS011;54749;47.850;9.002;2023-04-08T06:10:00;15.03;;;6.70;;
67965;SDS011;54749;47.850;9.002;2023-04-08T06:12:27;15.45;;;7.45;;
67965;SDS011;54749;47.850;9.002;2023-04-08T06:14:54;15.65;;;7.18;;
67965;SDS011;54749;47.850;9.002;2023-04-08T06:17:22;11.82;;;5.97;;
67965;SDS011;54749;47.850;9.002;2023-04-08T06:19:49;14.07;;;6.50;;
67965;SDS011;54749;47.850;9.002;2023-04-08T06:22:16;12.60;;;6.63;;
67965;SDS011;54749;47.850;9.002;2023-04-08T06:24:45;12.70;;;6.75;;
67965;SDS011;54749;47.850;9.002;2023-04-08T06:27:13;12.88;;;6.38;;
67965;SDS011;54749;47.850;9.002;2023-04-08T06:29:41;12.57;;;6.25;;
67965;SDS011;54749;47.850;9.002;2023-04-08T06:32:09;11.52;;;6.15;;
67965;SDS011;54749;47.850;9.002;2023-04-08T06:34:36;14.37;;;5.93;;
67965;SDS011;54749;47.850;9.002;2023-04-08T06:37:04;13.43;;;6.40;;
67965;SDS011;54749;47.850;9.002;2023-04-08T06:39:32;12.23;;;6.35;;
67965;SDS011;54749;47.850;9.002;2023-04-08T06:41:59;11.02;;;5.43;;
67965;SDS011;54749;47.850;9.002;2023-04-08T06:44:46;12.98;;;6.10;;
67965;SDS011;54749;47.850;9.002;2023-04-08T06:47:13;12.60;;;6.37;;
67965;SDS011;54749;47.850;9.002;2023-04-08T06:49:40;11.15;;;5.68;;
67965;SDS011;54749;47.850;9.002;2023-04-08T06:52:08;11.10;;;5.70;;
67965;SDS011;54749;47.850;9.002;2023-04-08T06:54:35;11.18;;;5.60;;
67965;SDS011;54749;47.850;9.002;2023-04-08T06:57:02;11.48;;;5.55;;
67965;SDS011;54749;47.850;9.002;2023-04-08T06:59:30;13.40;;;5.83;;
67965;SDS011;54749;47.850;9.002;2023-04-08T07:01:57;11.65;;;6.68;;
67965;SDS011;54749;47.850;9.002;2023-04-08T07:04:24;13.60;;;6.10;;
67965;SDS011;54749;47.850;9.002;2023-04-08T07:06:52;14.07;;;7.40;;
67965;SDS011;54749;47.850;9.002;2023-04-08T07:09:19;13.20;;;6.95;;
67965;SDS011;54749;47.850;9.002;2023-04-08T07:11:46;14.90;;;6.90;;
67965;SDS011;54749;47.850;9.002;2023-04-08T07:14:14;11.73;;;6.20;;
67965;SDS011;54749;47.850;9.002;2023-04-08T07:16:41;12.18;;;6.22;;
67965;SDS011;54749;47.850;9.002;2023-04-08T07:19:08;12.85;;;6.15;;
67965;SDS011;54749;47.850;9.002;2023-04-08T07:21:35;14.35;;;6.97;;
67965;SDS011;54749;47.850;9.002;2023-04-08T07:24:02;11.73;;;6.50;;
67965;SDS011;54749;47.850;9.002;2023-04-08T07:26:29;13.02;;;6.47;;
67965;SDS011;54749;47.850;9.002;2023-04-08T07:28:57;14.73;;;7.78;;
67965;SDS011;54749;47.850;9.002;2023-04-08T07:31:24;13.20;;;7.32;;
67965;SDS011;54749;47.850;9.002;2023-04-08T07:33:51;15.35;;;7.72;;
67965;SDS011;54749;47.850;9.002;2023-04-08T07:36:18;11.73;;;6.27;;
67965;SDS011;54749;47.850;9.002;2023-04-08T07:38:47;12.52;;;6.68;;
67965;SDS011;54749;47.850;9.002;2023-04-08T07:41:14;11.73;;;6.15;;
67965;SDS011;54749;47.850;9.002;2023-04-08T07:43:41;12.18;;;6.25;;
67965;SDS011;54749;47.850;9.002;2023-04-08T07:46:08;13.35;;;7.07;;
67965;SDS011;54749;47.850;9.002;2023-04-08T07:48:36;12.30;;;6.63;;
67965;SDS011;54749;47.850;9.002;2023-04-08T07:51:07;12.40;;;6.53;;
67965;SDS011;54749;47.850;9.002;2023-04-08T07:53:37;13.10;;;6.22;;
67965;SDS011;54749;47.850;9.002;2023-04-08T07:56:12;14.70;;;7.25;;
67965;SDS011;54749;47.850;9.002;2023-04-08T07:58:40;13.27;;;6.80;;
67965;SDS011;54749;47.850;9.002;2023-04-08T08:01:21;12.80;;;6.20;;
67965;SDS011;54749;47.850;9.002;2023-04-08T08:03:49;11.95;;;6.57;;
67965;SDS011;54749;47.850;9.002;2023-04-08T08:06:19;13.90;;;6.65;;
67965;SDS011;54749;47.850;9.002;2023-04-08T08:08:46;12.20;;;6.50;;
67965;SDS011;54749;47.850;9.002;2023-04-08T08:11:13;13.68;;;6.82;;
67965;SDS011;54749;47.850;9.002;2023-04-08T08:13:41;13.97;;;7.03;;
67965;SDS011;54749;47.850;9.002;2023-04-08T08:16:08;15.23;;;8.35;;
67965;SDS011;54749;47.850;9.002;2023-04-08T08:18:38;17.88;;;9.15;;
67965;SDS011;54749;47.850;9.002;2023-04-08T08:21:06;14.43;;;7.43;;
67965;SDS011;54749;47.850;9.002;2023-04-08T08:23:34;17.30;;;8.60;;
67965;SDS011;54749;47.850;9.002;2023-04-08T08:26:03;15.27;;;7.57;;
67965;SDS011;54749;47.850;9.002;2023-04-08T08:28:32;13.73;;;7.40;;
67965;SDS011;54749;47.850;9.002;2023-04-08T08:30:59;12.80;;;6.40;;
67965;SDS011;54749;47.850;9.002;2023-04-08T08:33:26;11.38;;;6.18;;
67965;SDS011;54749;47.850;9.002;2023-04-08T08:35:53;11.10;;;5.43;;
67965;SDS011;54749;47.850;9.002;2023-04-08T08:38:21;12.53;;;6.80;;
67965;SDS011;54749;47.850;9.002;2023-04-08T08:40:55;10.77;;;5.38;;
67965;SDS011;54749;47.850;9.002;2023-04-08T08:43:23;13.07;;;6.72;;
67965;SDS011;54749;47.850;9.002;2023-04-08T08:45:51;10.13;;;5.30;;
67965;SDS011;54749;47.850;9.002;2023-04-08T08:48:19;7.97;;;4.47;;
67965;SDS011;54749;47.850;9.002;2023-04-08T08:50:46;8.43;;;4.87;;
67965;SDS011;54749;47.850;9.002;2023-04-08T08:53:14;8.70;;;4.60;;
67965;SDS011;54749;47.850;9.002;2023-04-08T08:55:41;7.80;;;4.30;;
67965;SDS011;54749;47.850;9.002;2023-04-08T08:58:11;8.98;;;4.43;;
67965;SDS011;54749;47.850;9.002;2023-04-08T09:00:39;8.77;;;4.20;;
67965;SDS011;54749;47.850;9.002;2023-04-08T09:03:24;7.73;;;3.97;;
67965;SDS011;54749;47.850;9.002;2023-04-08T09:06:01;7.90;;;3.95;;
67965;SDS011;54749;47.850;9.002;2023-04-08T09:08:33;7.35;;;3.67;;
67965;SDS011;54749;47.850;9.002;2023-04-08T09:11:14;7.30;;;3.95;;
67965;SDS011;54749;47.850;9.002;2023-04-08T09:13:43;9.52;;;4.45;;
67965;SDS011;54749;47.850;9.002;2023-04-08T09:16:13;8.37;;;4.37;;
67965;SDS011;54749;47.850;9.002;2023-04-08T09:18:45;8.45;;;4.43;;
67965;SDS011;54749;47.850;9.002;2023-04-08T09:21:17;7.03;;;3.83;;
67965;SDS011;54749;47.850;9.002;2023-04-08T09:23:49;6.90;;;3.88;;
67965;SDS011;54749;47.850;9.002;2023-04-08T09:26:19;7.15;;;3.63;;
67965;SDS011;54749;47.850;9.002;2023-04-08T09:29:04;6.40;;;3.10;;
67965;SDS011;54749;47.850;9.002;2023-04-08T09:31:54;7.55;;;3.70;;
67965;SDS011;54749;47.850;9.002;2023-04-08T09:34:24;6.72;;;3.83;;
67965;SDS011;54749;47.850;9.002;2023-04-08T09:36:53;8.43;;;4.20;;
67965;SDS011;54749;47.850;9.002;2023-04-08T09:39:22;7.65;;;3.88;;
67965;SDS011;54749;47.850;9.002;2023-04-08T09:41:50;7.10;;;3.80;;
67965;SDS011;54749;47.850;9.002;2023-04-08T09:44:19;8.40;;;4.07;;
67965;SDS011;54749;47.850;9.002;2023-04-08T09:49:45;7.43;;;3.83;;
67965;SDS011;54749;47.850;9.002;2023-04-08T09:52:20;10.48;;;5.97;;
67965;SDS011;54749;47.850;9.002;2023-04-08T09:54:58;9.27;;;4.43;;
67965;SDS011;54749;47.850;9.002;2023-04-08T10:00:08;8.65;;;4.32;;
67965;SDS011;54749;47.850;9.002;2023-04-08T10:02:46;7.05;;;3.83;;
67965;SDS011;54749;47.850;9.002;2023-04-08T10:05:20;7.13;;;3.88;;
67965;SDS011;54749;47.850;9.002;2023-04-08T10:07:50;7.30;;;4.00;;
67965;SDS011;54749;47.850;9.002;2023-04-08T10:10:17;7.65;;;4.03;;
67965;SDS011;54749;47.850;9.002;2023-04-08T10:12:45;8.20;;;4.40;;
67965;SDS011;54749;47.850;9.002;2023-04-08T10:15:26;8.05;;;4.50;;
67965;SDS011;54749;47.850;9.002;2023-04-08T10:17:54;7.80;;;4.43;;
67965;SDS011;54749;47.850;9.002;2023-04-08T10:28:01;9.43;;;4.60;;
67965;SDS011;54749;47.850;9.002;2023-04-08T10:30:49;6.80;;;3.72;;
67965;SDS011;54749;47.850;9.002;2023-04-08T10:36:07;7.57;;;4.20;;
67965;SDS011;54749;47.850;9.002;2023-04-08T10:38:36;8.40;;;4.78;;
67965;SDS011;54749;47.850;9.002;2023-04-08T10:41:04;8.18;;;4.43;;
67965;SDS011;54749;47.850;9.002;2023-04-08T10:43:34;7.88;;;4.40;;
67965;SDS011;54749;47.850;9.002;2023-04-08T10:46:02;6.60;;;3.87;;
67965;SDS011;54749;47.850;9.002;2023-04-08T10:48:30;7.28;;;3.92;;
67965;SDS011;54749;47.850;9.002;2023-04-08T10:50:58;7.07;;;3.58;;
67965;SDS011;54749;47.850;9.002;2023-04-08T10:53:28;6.97;;;3.03;;
67965;SDS011;54749;47.850;9.002;2023-04-08T10:56:06;7.25;;;3.80;;
67965;SDS011;54749;47.850;9.002;2023-04-08T10:58:34;7.37;;;3.67;;
67965;SDS011;54749;47.850;9.002;2023-04-08T11:01:05;7.38;;;4.20;;
67965;SDS011;54749;47.850;9.002;2023-04-08T11:03:34;6.22;;;3.67;;
67965;SDS011;54749;47.850;9.002;2023-04-08T11:06:03;6.35;;;3.10;;
67965;SDS011;54749;47.850;9.002;2023-04-08T11:08:31;6.97;;;3.42;;
67965;SDS011;54749;47.850;9.002;2023-04-08T11:11:00;7.03;;;4.17;;
67965;SDS011;54749;47.850;9.002;2023-04-08T11:13:31;6.75;;;3.90;;
67965;SDS011;54749;47.850;9.002;2023-04-08T11:15:59;6.63;;;3.60;;
67965;SDS011;54749;47.850;9.002;2023-04-08T11:18:26;6.70;;;3.88;;
67965;SDS011;54749;47.850;9.002;2023-04-08T11:20:54;8.00;;;4.40;;
67965;SDS011;54749;47.850;9.002;2023-04-08T11:23:24;7.43;;;4.07;;
67965;SDS011;54749;47.850;9.002;2023-04-08T11:25:52;7.05;;;4.22;;
67965;SDS011;54749;47.850;9.002;2023-04-08T11:28:19;7.75;;;4.05;;
67965;SDS011;54749;47.850;9.002;2023-04-08T11:30:48;6.38;;;3.58;;
67965;SDS011;54749;47.850;9.002;2023-04-08T11:33:15;7.10;;;3.35;;
67965;SDS011;54749;47.850;9.002;2023-04-08T11:35:43;6.03;;;2.97;;
67965;SDS011;54749;47.850;9.002;2023-04-08T11:38:10;5.95;;;3.13;;
67965;SDS011;54749;47.850;9.002;2023-04-08T11:40:37;7.25;;;3.92;;
67965;SDS011;54749;47.850;9.002;2023-04-08T11:43:11;7.95;;;4.15;;
67965;SDS011;54749;47.850;9.002;2023-04-08T11:45:41;7.90;;;4.00;;
67965;SDS011;54749;47.850;9.002;2023-04-08T11:48:09;7.53;;;3.43;;
67965;SDS011;54749;47.850;9.002;2023-04-08T11:50:36;7.80;;;4.22;;
67965;SDS011;54749;47.850;9.002;2023-04-08T11:53:03;7.50;;;4.00;;
67965;SDS011;54749;47.850;9.002;2023-04-08T11:55:31;7.65;;;4.30;;
67965;SDS011;54749;47.850;9.002;2023-04-08T11:58:02;6.18;;;3.58;;
67965;SDS011;54749;47.850;9.002;2023-04-08T12:00:30;7.47;;;3.80;;
67965;SDS011;54749;47.850;9.002;2023-04-08T12:02:58;7.53;;;3.65;;
67965;SDS011;54749;47.850;9.002;2023-04-08T12:05:26;7.55;;;3.58;;
67965;SDS011;54749;47.850;9.002;2023-04-08T12:07:53;6.85;;;3.55;;
67965;SDS011;54749;47.850;9.002;2023-04-08T12:10:20;7.18;;;3.60;;
67965;SDS011;54749;47.850;9.002;2023-04-08T12:12:48;6.70;;;2.90;;
67965;SDS011;54749;47.850;9.002;2023-04-08T12:15:15;5.07;;;2.50;;
67965;SDS011;54749;47.850;9.002;2023-04-08T12:17:42;6.15;;;3.25;;
67965;SDS011;54749;47.850;9.002;2023-04-08T12:20:10;6.70;;;2.97;;
67965;SDS011;54749;47.850;9.002;2023-04-08T12:22:38;6.30;;;3.40;;
67965;SDS011;54749;47.850;9.002;2023-04-08T12:25:06;5.77;;;3.30;;
67965;SDS011;54749;47.850;9.002;2023-04-08T12:27:33;7.25;;;3.90;;
67965;SDS011;54749;47.850;9.002;2023-04-08T12:30:01;6.60;;;3.75;;
67965;SDS011;54749;47.850;9.002;2023-04-08T12:32:29;6.07;;;3.20;;
67965;SDS011;54749;47.850;9.002;2023-04-08T12:34:56;6.82;;;3.30;;
67965;SDS011;54749;47.850;9.002;2023-04-08T12:37:23;7.63;;;3.37;;
67965;SDS011;54749;47.850;9.002;2023-04-08T12:39:51;6.13;;;2.90;;
67965;SDS011;54749;47.850;9.002;2023-04-08T12:42:18;6.75;;;3.60;;
67965;SDS011;54749;47.850;9.002;2023-04-08T12:44:45;8.05;;;4.07;;
67965;SDS011;54749;47.850;9.002;2023-04-08T12:47:12;7.38;;;3.65;;
67965;SDS011;54749;47.850;9.002;2023-04-08T12:49:39;7.17;;;4.03;;
67965;SDS011;54749;47.850;9.002;2023-04-08T12:52:09;8.35;;;4.47;;
67965;SDS011;54749;47.850;9.002;2023-04-08T12:54:36;8.82;;;4.22;;
67965;SDS011;54749;47.850;9.002;2023-04-08T12:57:04;7.97;;;3.97;;
67965;SDS011;54749;47.850;9.002;2023-04-08T12:59:31;8.05;;;4.22;;
67965;SDS011;54749;47.850;9.002;2023-04-08T13:01:59;8.00;;;4.33;;
67965;SDS011;54749;47.850;9.002;2023-04-08T13:04:26;8.05;;;4.40;;
67965;SDS011;54749;47.850;9.002;2023-04-08T13:06:53;7.25;;;3.90;;
67965;SDS011;54749;47.850;9.002;2023-04-08T13:09:21;7.72;;;3.88;;
67965;SDS011;54749;47.850;9.002;2023-04-08T13:11:48;7.28;;;3.65;;
67965;SDS011;54749;47.850;9.002;2023-04-08T13:14:16;7.00;;;3.70;;
67965;SDS011;54749;47.850;9.002;2023-04-08T13:16:43;7.25;;;3.58;;
67965;SDS011;54749;47.850;9.002;2023-04-08T13:19:10;7.70;;;3.72;;
67965;SDS011;54749;47.850;9.002;2023-04-08T13:21:37;5.88;;;3.00;;
67965;SDS011;54749;47.850;9.002;2023-04-08T13:24:04;7.45;;;3.70;;
67965;SDS011;54749;47.850;9.002;2023-04-08T13:26:32;7.20;;;3.90;;
67965;SDS011;54749;47.850;9.002;2023-04-08T13:28:59;7.90;;;3.80;;
67965;SDS011;54749;47.850;9.002;2023-04-08T13:31:27;7.65;;;3.83;;
67965;SDS011;54749;47.850;9.002;2023-04-08T13:33:54;7.07;;;3.78;;
67965;SDS011;54749;47.850;9.002;2023-04-08T13:36:23;6.95;;;3.55;;
67965;SDS011;54749;47.850;9.002;2023-04-08T13:38:51;7.00;;;3.67;;
67965;SDS011;54749;47.850;9.002;2023-04-08T13:41:19;7.05;;;3.78;;
67965;SDS011;54749;47.850;9.002;2023-04-08T13:43:51;6.85;;;3.50;;
67965;SDS011;54749;47.850;9.002;2023-04-08T13:46:18;7.20;;;3.80;;
67965;SDS011;54749;47.850;9.002;2023-04-08T13:48:45;7.50;;;4.00;;
67965;SDS011;54749;47.850;9.002;2023-04-08T13:51:12;9.03;;;4.60;;
67965;SDS011;54749;47.850;9.002;2023-04-08T13:53:39;9.82;;;5.50;;
67965;SDS011;54749;47.850;9.002;2023-04-08T13:56:06;10.00;;;6.13;;
67965;SDS011;54749;47.850;9.002;2023-04-08T13:58:34;12.23;;;7.03;;
67965;SDS011;54749;47.850;9.002;2023-04-08T14:01:01;14.45;;;8.60;;
67965;SDS011;54749;47.850;9.002;2023-04-08T14:03:28;12.43;;;7.10;;
67965;SDS011;54749;47.850;9.002;2023-04-08T14:05:55;14.48;;;8.50;;
67965;SDS011;54749;47.850;9.002;2023-04-08T14:08:26;15.60;;;8.93;;
67965;SDS011;54749;47.850;9.002;2023-04-08T14:10:55;15.32;;;8.93;;
67965;SDS011;54749;47.850;9.002;2023-04-08T14:13:23;15.65;;;9.07;;
67965;SDS011;54749;47.850;9.002;2023-04-08T14:15:50;13.37;;;7.50;;
67965;SDS011;54749;47.850;9.002;2023-04-08T14:18:19;15.55;;;9.30;;
67965;SDS011;54749;47.850;9.002;2023-04-08T14:20:46;16.25;;;9.20;;
67965;SDS011;54749;47.850;9.002;2023-04-08T14:23:13;14.57;;;8.55;;
67965;SDS011;54749;47.850;9.002;2023-04-08T14:25:42;13.32;;;7.90;;
67965;SDS011;54749;47.850;9.002;2023-04-08T14:28:09;15.80;;;9.80;;
67965;SDS011;54749;47.850;9.002;2023-04-08T14:30:37;16.23;;;9.80;;
67965;SDS011;54749;47.850;9.002;2023-04-08T14:33:04;18.58;;;9.80;;
67965;SDS011;54749;47.850;9.002;2023-04-08T14:35:31;16.10;;;8.70;;
67965;SDS011;54749;47.850;9.002;2023-04-08T14:37:59;15.57;;;9.30;;
67965;SDS011;54749;47.850;9.002;2023-04-08T14:40:26;13.90;;;9.03;;
67965;SDS011;54749;47.850;9.002;2023-04-08T14:42:53;17.73;;;9.27;;
67965;SDS011;54749;47.850;9.002;2023-04-08T14:45:20;16.58;;;9.80;;
67965;SDS011;54749;47.850;9.002;2023-04-08T14:47:48;15.95;;;9.50;;
67965;SDS011;54749;47.850;9.002;2023-04-08T14:50:15;15.98;;;9.90;;
67965;SDS011;54749;47.850;9.002;2023-04-08T14:52:42;16.20;;;9.33;;
67965;SDS011;54749;47.850;9.002;2023-04-08T14:55:11;15.25;;;9.55;;
67965;SDS011;54749;47.850;9.002;2023-04-08T14:57:38;15.80;;;9.55;;
67965;SDS011;54749;47.850;9.002;2023-04-08T15:00:05;15.35;;;8.85;;
67965;SDS011;54749;47.850;9.002;2023-04-08T15:02:33;16.75;;;9.25;;
67965;SDS011;54749;47.850;9.002;2023-04-08T15:05:01;14.53;;;8.60;;
67965;SDS011;54749;47.850;9.002;2023-04-08T15:07:28;14.63;;;8.68;;
67965;SDS011;54749;47.850;9.002;2023-04-08T15:09:55;15.65;;;9.15;;